createdAt,value
2017-11-23T00:01:58.487Z,7.40
2017-11-23T00:04:24.722Z,7.40
2017-11-23T00:06:50.897Z,7.40
2017-11-23T00:09:17.205Z,7.50
2017-11-23T00:11:44.245Z,7.50
2017-11-23T00:14:11.299Z,7.70
2017-11-23T00:16:38.370Z,7.80
2017-11-23T00:19:04.667Z,7.80
2017-11-23T00:21:30.962Z,7.80
2017-11-23T00:23:57.213Z,7.90
2017-11-23T00:26:23.484Z,7.90
2017-11-23T00:28:49.737Z,7.90
2017-11-23T00:31:15.998Z,7.90
2017-11-23T00:33:42.237Z,7.90
2017-11-23T00:36:08.552Z,7.90
2017-11-23T00:38:34.818Z,7.90
2017-11-23T00:41:01.967Z,7.90
2017-11-23T00:43:28.233Z,7.90
2017-11-23T00:45:54.537Z,7.90
2017-11-23T00:48:20.819Z,7.90
2017-11-23T00:50:47.135Z,8.00
2017-11-23T00:53:13.448Z,8.00
2017-11-23T00:55:39.723Z,8.00
2017-11-23T00:58:05.999Z,8.00
2017-11-23T01:00:32.308Z,8.00
2017-11-23T01:02:59.310Z,8.00
2017-11-23T01:05:25.605Z,8.00
2017-11-23T01:07:51.877Z,8.00
2017-11-23T01:10:18.186Z,8.10
2017-11-23T01:12:44.486Z,8.20
2017-11-23T01:15:10.783Z,8.20
2017-11-23T01:17:37.821Z,8.20
2017-11-23T01:20:04.098Z,8.20
2017-11-23T01:22:36.284Z,8.10
2017-11-23T01:25:02.590Z,8.10
2017-11-23T01:27:28.833Z,8.10
2017-11-23T01:29:55.156Z,8.10
2017-11-23T01:32:21.476Z,8.00
2017-11-23T01:34:47.823Z,8.00
2017-11-23T01:37:14.136Z,8.00
2017-11-23T01:39:41.228Z,7.90
2017-11-23T01:42:07.493Z,7.90
2017-11-23T01:44:34.526Z,7.80
2017-11-23T01:47:00.802Z,7.70
2017-11-23T01:49:27.115Z,7.70
2017-11-23T01:51:53.379Z,7.70
2017-11-23T01:54:19.693Z,7.70
2017-11-23T01:56:46.024Z,7.70
2017-11-23T01:59:12.360Z,7.70
2017-11-23T02:01:38.658Z,7.60
2017-11-23T02:04:05.663Z,7.50
2017-11-23T02:06:31.933Z,7.50
2017-11-23T02:08:59.006Z,7.40
2017-11-23T02:11:25.338Z,7.40
2017-11-23T02:13:51.642Z,7.30
2017-11-23T02:16:18.791Z,7.30
2017-11-23T02:18:45.848Z,7.30
2017-11-23T02:21:12.207Z,7.20
2017-11-23T02:23:38.523Z,7.20
2017-11-23T02:26:04.889Z,7.20
2017-11-23T02:28:31.216Z,7.10
2017-11-23T02:30:57.578Z,7.10
2017-11-23T02:33:23.898Z,7.10
2017-11-23T02:35:51.384Z,7.20
2017-11-23T02:38:18.499Z,7.10
2017-11-23T02:40:44.797Z,7.10
2017-11-23T02:43:11.115Z,7.10
2017-11-23T02:45:37.428Z,7.00
2017-11-23T02:48:03.690Z,7.00
2017-11-23T02:50:30.006Z,7.00
2017-11-23T02:52:56.292Z,7.00
2017-11-23T02:55:22.606Z,7.00
2017-11-23T02:57:48.914Z,6.90
2017-11-23T03:00:15.235Z,6.90
2017-11-23T03:02:41.543Z,6.90
2017-11-23T03:05:07.875Z,7.00
2017-11-23T03:07:34.158Z,7.00
2017-11-23T03:10:00.441Z,7.00
2017-11-23T03:12:26.731Z,7.00
2017-11-23T03:14:53.006Z,7.00
2017-11-23T03:17:19.308Z,7.10
2017-11-23T03:19:46.340Z,7.20
2017-11-23T03:22:12.603Z,7.20
2017-11-23T03:24:38.901Z,7.30
2017-11-23T03:27:05.205Z,7.30
2017-11-23T03:29:31.512Z,7.30
2017-11-23T03:31:57.823Z,7.20
2017-11-23T03:34:24.180Z,7.30
2017-11-23T03:36:50.529Z,7.30
2017-11-23T03:39:16.839Z,7.30
2017-11-23T03:41:43.161Z,7.30
2017-11-23T03:44:09.468Z,7.30
2017-11-23T03:46:35.745Z,7.30
2017-11-23T03:49:02.063Z,7.30
2017-11-23T03:51:28.389Z,7.30
2017-11-23T03:53:54.690Z,7.30
2017-11-23T03:56:20.985Z,7.30
2017-11-23T03:58:47.317Z,7.40
2017-11-23T04:01:13.663Z,7.50
2017-11-23T04:03:39.987Z,7.50
2017-11-23T04:06:07.016Z,7.40
2017-11-23T04:08:33.323Z,7.40
2017-11-23T04:10:59.627Z,7.40
2017-11-23T04:13:25.950Z,7.30
2017-11-23T04:15:52.252Z,7.40
2017-11-23T04:18:19.297Z,7.50
2017-11-23T04:20:46.313Z,7.60
2017-11-23T04:23:12.649Z,7.50
2017-11-23T04:25:38.992Z,7.70
2017-11-23T04:28:05.319Z,7.70
2017-11-23T04:30:31.609Z,7.80
2017-11-23T04:32:57.900Z,7.80
2017-11-23T04:35:24.209Z,7.90
2017-11-23T04:37:50.501Z,7.90
2017-11-23T04:40:16.811Z,7.90
2017-11-23T04:42:43.121Z,7.90
2017-11-23T04:45:09.409Z,7.90
2017-11-23T04:47:35.763Z,7.90
2017-11-23T04:50:02.115Z,7.90
2017-11-23T04:52:29.152Z,8.00
2017-11-23T04:54:56.159Z,8.10
2017-11-23T04:57:22.463Z,8.10
2017-11-23T04:59:48.735Z,8.20
2017-11-23T05:02:15.044Z,8.30
2017-11-23T05:04:41.335Z,8.30
2017-11-23T05:07:08.383Z,8.60
2017-11-23T05:09:34.679Z,8.50
2017-11-23T05:12:00.964Z,8.60
2017-11-23T05:14:27.239Z,8.60
2017-11-23T05:16:53.527Z,8.60
2017-11-23T05:19:19.804Z,8.70
2017-11-23T05:21:46.075Z,8.70
2017-11-23T05:24:12.366Z,8.70
2017-11-23T05:26:38.647Z,8.70
2017-11-23T05:29:04.933Z,8.70
2017-11-23T05:31:31.970Z,8.70
2017-11-23T05:33:58.240Z,8.70
2017-11-23T05:36:24.493Z,8.70
2017-11-23T05:38:50.800Z,8.70
2017-11-23T05:41:17.067Z,8.70
2017-11-23T05:43:43.367Z,8.70
2017-11-23T05:46:09.633Z,8.70
2017-11-23T05:48:35.922Z,8.80
2017-11-23T05:51:02.181Z,8.80
2017-11-23T05:53:28.457Z,8.80
2017-11-23T05:55:55.483Z,8.80
2017-11-23T05:58:21.764Z,8.80
2017-11-23T06:00:48.099Z,8.90
2017-11-23T06:03:14.414Z,8.90
2017-11-23T06:05:40.696Z,8.90
2017-11-23T06:08:06.997Z,9.00
2017-11-23T06:10:33.300Z,9.00
2017-11-23T06:12:59.546Z,9.00
2017-11-23T06:15:25.820Z,9.00
2017-11-23T06:17:52.144Z,9.00
2017-11-23T06:20:18.416Z,9.00
2017-11-23T06:22:44.724Z,9.00
2017-11-23T06:25:11.735Z,9.00
2017-11-23T06:27:38.057Z,9.00
2017-11-23T06:30:04.468Z,9.00
2017-11-23T06:32:30.835Z,9.00
2017-11-23T06:34:57.129Z,9.00
2017-11-23T06:37:23.420Z,9.00
2017-11-23T06:39:49.674Z,8.90
2017-11-23T06:42:16.006Z,9.00
2017-11-23T06:44:42.255Z,9.00
2017-11-23T06:47:08.566Z,8.90
2017-11-23T06:49:34.828Z,8.90
2017-11-23T06:52:01.164Z,8.90
2017-11-23T06:54:27.474Z,8.90
2017-11-23T06:56:53.778Z,9.00
2017-11-23T06:59:20.760Z,8.90
2017-11-23T07:01:47.052Z,8.90
2017-11-23T07:04:14.051Z,8.80
2017-11-23T07:06:40.328Z,8.80
2017-11-23T07:09:07.390Z,8.80
2017-11-23T07:11:33.692Z,8.80
2017-11-23T07:14:00.692Z,8.90
2017-11-23T07:16:27.002Z,8.90
2017-11-23T07:18:53.294Z,8.90
2017-11-23T07:21:20.321Z,8.80
2017-11-23T07:23:46.581Z,8.80
2017-11-23T07:26:13.602Z,8.80
2017-11-23T07:28:39.922Z,8.80
2017-11-23T07:31:06.239Z,8.80
2017-11-23T07:33:32.491Z,8.80
2017-11-23T07:35:58.826Z,8.90
2017-11-23T07:38:25.106Z,8.90
2017-11-23T07:40:51.390Z,8.80
2017-11-23T07:43:17.669Z,8.90
2017-11-23T07:45:43.960Z,9.00
2017-11-23T07:48:10.225Z,9.10
2017-11-23T07:50:36.513Z,9.10
2017-11-23T07:53:02.784Z,9.20
2017-11-23T07:55:29.067Z,9.30
2017-11-23T07:57:55.383Z,9.40
2017-11-23T08:00:21.626Z,9.40
2017-11-23T08:02:47.908Z,9.50
2017-11-23T08:05:14.183Z,9.60
2017-11-23T08:07:40.454Z,9.60
2017-11-23T08:10:06.702Z,9.70
2017-11-23T08:12:32.969Z,9.70
2017-11-23T08:14:59.258Z,9.80
2017-11-23T08:17:25.564Z,9.90
2017-11-23T08:19:51.849Z,9.90
2017-11-23T08:22:18.191Z,10.00
2017-11-23T08:24:44.445Z,10.10
2017-11-23T08:27:11.488Z,10.20
2017-11-23T08:29:37.766Z,10.20
2017-11-23T08:32:04.093Z,10.20
2017-11-23T08:34:30.383Z,10.20
2017-11-23T08:36:57.450Z,10.30
2017-11-23T08:39:23.727Z,10.30
2017-11-23T08:41:50.035Z,10.40
2017-11-23T08:44:16.284Z,10.50
2017-11-23T08:46:42.618Z,10.50
2017-11-23T08:49:08.887Z,10.60
2017-11-23T08:51:35.205Z,10.70
2017-11-23T08:54:02.218Z,10.80
2017-11-23T08:56:28.505Z,10.70
2017-11-23T08:58:54.814Z,10.80
2017-11-23T09:01:21.832Z,11.00
2017-11-23T09:03:48.088Z,10.90
2017-11-23T09:06:14.445Z,11.00
2017-11-23T09:08:40.729Z,11.10
2017-11-23T09:11:07.029Z,11.20
2017-11-23T09:13:33.274Z,11.20
2017-11-23T09:15:59.591Z,11.30
2017-11-23T09:18:25.850Z,11.30
2017-11-23T09:20:52.160Z,11.30
2017-11-23T09:23:18.430Z,11.40
2017-11-23T09:25:44.765Z,11.40
2017-11-23T09:28:11.051Z,11.40
2017-11-23T09:30:37.339Z,11.50
2017-11-23T09:33:03.631Z,11.50
2017-11-23T09:35:29.959Z,11.50
2017-11-23T09:37:56.975Z,11.60
2017-11-23T09:40:23.276Z,11.50
2017-11-23T09:42:49.590Z,11.70
2017-11-23T09:45:16.607Z,11.90
2017-11-23T09:47:42.907Z,11.90
2017-11-23T09:50:09.208Z,11.90
2017-11-23T09:52:35.487Z,11.90
2017-11-23T09:55:01.778Z,11.90
2017-11-23T09:57:28.057Z,12.00
2017-11-23T09:59:54.369Z,12.00
2017-11-23T10:02:20.639Z,11.90
2017-11-23T10:04:47.650Z,11.90
2017-11-23T10:07:13.890Z,11.90
2017-11-23T10:09:40.161Z,12.00
2017-11-23T10:12:06.441Z,12.00
2017-11-23T10:14:38.813Z,12.00
2017-11-23T10:17:05.073Z,12.00
2017-11-23T10:19:32.093Z,12.10
2017-11-23T10:21:58.352Z,12.10
2017-11-23T10:24:25.390Z,12.30
2017-11-23T10:26:51.655Z,12.30
2017-11-23T10:29:17.907Z,12.40
2017-11-23T10:31:44.180Z,12.50
2017-11-23T10:34:11.234Z,12.50
2017-11-23T10:36:37.543Z,12.50
2017-11-23T10:39:03.838Z,12.60
2017-11-23T10:41:30.108Z,12.80
2017-11-23T10:43:57.077Z,13.10
2017-11-23T10:46:23.357Z,13.10
2017-11-23T10:48:49.661Z,13.10
2017-11-23T10:51:15.927Z,13.20
2017-11-23T10:53:42.174Z,13.30
2017-11-23T10:56:09.175Z,13.40
2017-11-23T10:58:35.405Z,13.40
2017-11-23T11:01:01.709Z,13.40
2017-11-23T11:03:27.994Z,13.50
2017-11-23T11:05:54.306Z,13.60
2017-11-23T11:08:20.557Z,13.60
2017-11-23T11:10:46.815Z,13.70
2017-11-23T11:13:13.083Z,13.70
2017-11-23T11:15:39.364Z,13.70
2017-11-23T11:18:05.617Z,13.60
2017-11-23T11:20:31.887Z,13.50
2017-11-23T11:22:58.129Z,13.40
2017-11-23T11:25:24.400Z,13.50
2017-11-23T11:27:50.663Z,13.70
2017-11-23T11:30:16.938Z,14.00
2017-11-23T11:32:43.212Z,14.20
2017-11-23T11:35:09.514Z,14.30
2017-11-23T11:37:35.758Z,14.30
2017-11-23T11:40:02.086Z,14.30
2017-11-23T11:42:28.334Z,14.40
2017-11-23T11:44:54.654Z,14.50
2017-11-23T11:47:20.935Z,14.60
2017-11-23T11:49:47.198Z,14.80
2017-11-23T11:52:13.462Z,14.80
2017-11-23T11:54:39.762Z,14.80
2017-11-23T11:57:06.027Z,14.90
2017-11-23T11:59:32.293Z,15.00
2017-11-23T12:01:58.523Z,15.10
2017-11-23T12:04:25.545Z,15.00
2017-11-23T12:06:51.891Z,15.00
2017-11-23T12:09:18.933Z,15.00
2017-11-23T12:11:45.955Z,14.90
2017-11-23T12:14:24.463Z,14.90
2017-11-23T12:20:05.672Z,14.90
2017-11-23T12:22:57.024Z,14.90
2017-11-23T12:25:35.338Z,14.90
2017-11-23T12:28:13.844Z,14.90
2017-11-23T12:30:40.115Z,15.00
2017-11-23T12:33:06.366Z,15.00
2017-11-23T12:35:33.418Z,15.20
2017-11-23T12:37:59.631Z,15.20
2017-11-23T12:40:25.880Z,15.10
2017-11-23T12:42:52.101Z,15.20
2017-11-23T12:45:18.340Z,15.20
2017-11-23T12:47:44.570Z,15.10
2017-11-23T12:50:10.823Z,15.10
2017-11-23T12:52:37.059Z,15.10
2017-11-23T12:55:03.305Z,15.10
2017-11-23T12:57:29.515Z,14.80
2017-11-23T12:59:56.491Z,14.70
2017-11-23T13:02:22.719Z,14.70
2017-11-23T13:04:48.987Z,14.80
2017-11-23T13:07:15.246Z,14.80
2017-11-23T13:09:41.514Z,14.90
2017-11-23T13:12:07.762Z,14.90
2017-11-23T13:14:33.988Z,15.00
2017-11-23T13:17:00.232Z,15.00
2017-11-23T13:19:26.510Z,15.00
2017-11-23T13:21:53.473Z,14.60
2017-11-23T13:24:20.479Z,14.30
2017-11-23T13:26:46.718Z,14.30
2017-11-23T13:29:12.991Z,14.10
2017-11-23T13:31:39.247Z,13.80
2017-11-23T13:34:05.545Z,13.60
2017-11-23T13:36:31.932Z,13.40
2017-11-23T13:38:58.209Z,13.30
2017-11-23T13:41:25.215Z,13.20
2017-11-23T13:43:51.510Z,13.10
2017-11-23T13:46:18.498Z,13.30
2017-11-23T13:48:44.743Z,13.30
2017-11-23T13:51:11.004Z,13.30
2017-11-23T13:53:37.308Z,13.30
2017-11-23T13:56:03.599Z,13.30
2017-11-23T13:58:29.950Z,13.30
2017-11-23T14:00:56.209Z,13.40
2017-11-23T14:03:22.505Z,13.50
2017-11-23T14:05:48.819Z,13.50
2017-11-23T14:08:15.095Z,13.50
2017-11-23T14:10:41.430Z,13.60
2017-11-23T14:13:07.715Z,13.60
2017-11-23T14:15:33.956Z,13.70
2017-11-23T14:18:00.238Z,13.80
2017-11-23T14:20:27.232Z,13.90
2017-11-23T14:22:53.509Z,13.90
2017-11-23T14:25:19.765Z,14.00
2017-11-23T14:27:46.007Z,13.90
2017-11-23T14:30:12.261Z,13.80
2017-11-23T14:32:38.542Z,13.90
2017-11-23T14:35:04.798Z,13.80
2017-11-23T14:37:31.027Z,13.90
2017-11-23T14:39:57.276Z,13.80
2017-11-23T14:42:30.585Z,13.80
2017-11-23T14:44:56.875Z,13.90
2017-11-23T14:47:23.136Z,13.90
2017-11-23T14:49:50.125Z,13.80
2017-11-23T14:52:16.355Z,13.80
2017-11-23T14:54:42.609Z,13.80
2017-11-23T14:57:08.959Z,13.80
2017-11-23T14:59:35.224Z,13.80
2017-11-23T15:02:01.584Z,13.80
2017-11-23T15:04:27.859Z,13.80
2017-11-23T15:06:54.852Z,13.90
2017-11-23T15:09:21.087Z,13.80
2017-11-23T15:11:47.400Z,13.80
2017-11-23T15:14:13.651Z,13.80
2017-11-23T15:16:40.629Z,13.80
2017-11-23T15:19:06.909Z,13.80
2017-11-23T15:21:33.177Z,13.70
2017-11-23T15:23:59.438Z,13.70
2017-11-23T15:26:26.411Z,13.60
2017-11-23T15:28:52.691Z,13.60
2017-11-23T15:31:18.941Z,13.50
2017-11-23T15:33:45.223Z,13.40
2017-11-23T15:36:12.229Z,13.30
2017-11-23T15:38:38.480Z,13.20
2017-11-23T15:41:04.680Z,13.30
2017-11-23T15:43:31.679Z,13.20
2017-11-23T15:45:57.919Z,13.20
2017-11-23T15:48:24.150Z,13.20
2017-11-23T15:50:50.365Z,13.20
2017-11-23T15:53:16.640Z,13.20
2017-11-23T15:55:42.890Z,13.30
2017-11-23T15:58:09.199Z,13.30
2017-11-23T16:00:35.455Z,13.40
2017-11-23T16:03:01.728Z,13.40
2017-11-23T16:05:27.977Z,13.30
2017-11-23T16:07:54.239Z,13.40
2017-11-23T16:10:20.461Z,13.30
2017-11-23T16:12:46.886Z,13.40
2017-11-23T16:15:13.125Z,13.50
2017-11-23T16:17:39.430Z,13.50
2017-11-23T16:20:06.396Z,13.50
2017-11-23T16:22:32.649Z,13.50
2017-11-23T16:24:58.902Z,13.60
2017-11-23T16:27:25.141Z,13.60
2017-11-23T16:29:51.397Z,13.70
2017-11-23T16:32:17.675Z,13.70
2017-11-23T16:34:43.964Z,13.60
2017-11-23T16:37:10.257Z,13.70
2017-11-23T16:39:36.496Z,13.70
2017-11-23T16:42:08.873Z,13.70
2017-11-23T16:44:41.120Z,13.80
2017-11-23T16:47:15.032Z,13.80
2017-11-23T16:49:45.923Z,13.80
2017-11-23T16:52:27.128Z,13.80
2017-11-23T16:54:59.414Z,13.80
2017-11-23T16:57:31.629Z,13.90
2017-11-23T16:59:58.700Z,13.90
2017-11-23T17:05:41.591Z,13.80
2017-11-23T17:08:09.559Z,13.70
2017-11-23T17:10:42.577Z,13.70
2017-11-23T17:13:15.614Z,13.70
2017-11-23T17:15:42.848Z,13.70
2017-11-23T17:18:26.950Z,13.70
2017-11-23T17:20:53.217Z,13.70
2017-11-23T17:23:19.442Z,13.70
2017-11-23T17:25:45.683Z,13.70
2017-11-23T17:28:11.919Z,13.70
2017-11-23T17:30:39.001Z,13.70
2017-11-23T17:33:05.252Z,13.70
2017-11-23T17:35:31.536Z,13.60
2017-11-23T17:37:57.776Z,13.70
2017-11-23T17:40:24.013Z,13.60
2017-11-23T17:42:50.251Z,13.40
2017-11-23T17:45:16.526Z,13.20
2017-11-23T17:47:42.723Z,13.10
2017-11-23T17:50:09.730Z,13.00
2017-11-23T17:52:35.930Z,13.00
2017-11-23T17:55:02.915Z,12.70
2017-11-23T17:57:29.730Z,12.70
2017-11-23T17:59:56.185Z,12.50
2017-11-23T18:02:23.145Z,12.00
2017-11-23T18:04:50.130Z,11.90
2017-11-23T18:07:16.356Z,11.90
2017-11-23T18:09:43.456Z,11.60
2017-11-23T18:12:09.713Z,11.60
2017-11-23T18:14:36.152Z,11.50
2017-11-23T18:17:02.413Z,11.40
2017-11-23T18:19:28.687Z,11.30
2017-11-23T18:21:54.950Z,11.20
2017-11-23T18:24:21.488Z,11.10
2017-11-23T18:26:48.453Z,10.80
2017-11-23T18:29:15.485Z,10.70
2017-11-23T18:31:41.719Z,10.70
2017-11-23T18:34:08.061Z,10.70
2017-11-23T18:36:34.360Z,10.60
2017-11-23T18:39:00.657Z,10.60
2017-11-23T18:41:26.881Z,10.60
2017-11-23T18:43:53.171Z,10.50
2017-11-23T18:46:20.851Z,10.50
2017-11-23T18:48:47.141Z,10.40
2017-11-23T18:51:13.512Z,10.40
2017-11-23T18:53:39.788Z,10.50
2017-11-23T18:56:06.047Z,10.60
2017-11-23T18:58:32.301Z,10.60
2017-11-23T19:00:58.729Z,10.60
2017-11-23T19:03:24.976Z,10.60
2017-11-23T19:05:51.251Z,10.70
2017-11-23T19:08:17.528Z,10.70
2017-11-23T19:10:44.561Z,10.80
2017-11-23T19:13:11.012Z,10.80
2017-11-23T19:15:37.308Z,10.90
2017-11-23T19:18:03.621Z,11.00
2017-11-23T19:20:29.917Z,11.10
2017-11-23T19:22:56.181Z,11.00
2017-11-23T19:25:22.434Z,11.10
2017-11-23T19:27:48.745Z,11.10
2017-11-23T19:30:15.038Z,11.10
2017-11-23T19:32:42.272Z,11.10
2017-11-23T19:35:08.565Z,11.10
2017-11-23T19:37:35.595Z,11.00
2017-11-23T19:40:01.863Z,11.00
2017-11-23T19:42:28.902Z,10.90
2017-11-23T19:44:55.188Z,10.90
2017-11-23T19:47:21.470Z,10.80
2017-11-23T19:49:47.722Z,10.80
2017-11-23T19:52:13.924Z,10.80
2017-11-23T19:54:41.987Z,10.80
2017-11-23T19:57:08.975Z,10.80
2017-11-23T19:59:35.259Z,10.70
2017-11-23T20:02:01.588Z,10.70
2017-11-23T20:04:28.014Z,10.70
2017-11-23T20:06:54.243Z,10.80
2017-11-23T20:09:20.587Z,10.80
2017-11-23T20:11:46.812Z,10.80
2017-11-23T20:14:13.071Z,10.80
2017-11-23T20:16:39.370Z,10.70
2017-11-23T20:19:05.759Z,10.70
2017-11-23T20:21:32.204Z,10.70
2017-11-23T20:23:59.212Z,10.80
2017-11-23T20:26:25.465Z,10.70
2017-11-23T20:28:51.734Z,10.70
2017-11-23T20:31:18.720Z,10.50
2017-11-23T20:33:44.979Z,10.50
2017-11-23T20:36:11.229Z,10.40
2017-11-23T20:38:37.556Z,10.40
2017-11-23T20:41:03.914Z,10.30
2017-11-23T20:43:30.181Z,10.30
2017-11-23T20:45:56.407Z,10.30
2017-11-23T20:48:22.673Z,10.30
2017-11-23T20:50:48.951Z,10.20
2017-11-23T20:53:15.812Z,10.10
2017-11-23T20:55:42.774Z,10.20
2017-11-23T20:58:09.216Z,10.20
2017-11-23T21:00:35.489Z,10.10
2017-11-23T21:03:02.496Z,10.00
2017-11-23T21:05:28.764Z,10.00
2017-11-23T21:07:55.035Z,9.90
2017-11-23T21:10:21.281Z,9.90
2017-11-23T21:12:47.518Z,9.90
2017-11-23T21:15:14.562Z,9.80
2017-11-23T21:17:40.827Z,9.70
2017-11-23T21:20:07.206Z,9.70
2017-11-23T21:22:33.481Z,9.60
2017-11-23T21:25:00.512Z,9.50
2017-11-23T21:27:26.826Z,9.50
2017-11-23T21:29:53.110Z,9.40
2017-11-23T21:32:19.364Z,9.40
2017-11-23T21:34:46.387Z,9.40
2017-11-23T21:37:12.758Z,9.30
2017-11-23T21:39:39.787Z,9.20
2017-11-23T21:42:06.140Z,9.20
2017-11-23T21:44:32.388Z,9.20
2017-11-23T21:46:58.828Z,9.20
2017-11-23T21:49:25.113Z,9.10
2017-11-23T21:51:52.145Z,9.00
2017-11-23T21:54:18.554Z,9.00
2017-11-23T21:56:44.758Z,9.00
2017-11-23T21:59:11.753Z,8.80
2017-11-23T22:01:38.082Z,8.90
2017-11-23T22:04:04.374Z,8.80
2017-11-23T22:06:30.624Z,8.80
2017-11-23T22:08:56.913Z,8.80
2017-11-23T22:11:23.138Z,8.80
2017-11-23T22:13:50.099Z,8.70
2017-11-23T22:16:17.113Z,8.60
2017-11-23T22:18:43.382Z,8.60
2017-11-23T22:21:10.402Z,8.50
2017-11-23T22:23:36.672Z,8.50
2017-11-23T22:26:03.973Z,8.50
2017-11-23T22:28:31.046Z,8.50
2017-11-23T22:30:57.295Z,8.50
2017-11-23T22:33:23.547Z,8.50
2017-11-23T22:35:50.051Z,8.40
2017-11-23T22:38:16.341Z,8.40
2017-11-23T22:40:42.591Z,8.40
2017-11-23T22:43:08.852Z,8.40
2017-11-23T22:45:35.144Z,8.30
2017-11-23T22:48:02.180Z,8.10
2017-11-23T22:50:28.495Z,8.10
2017-11-23T22:52:54.723Z,8.10
2017-11-23T22:55:20.986Z,7.90
2017-11-23T22:57:47.235Z,7.70
2017-11-23T23:00:13.485Z,7.60
2017-11-23T23:02:39.751Z,7.40
2017-11-23T23:05:05.991Z,7.30
2017-11-23T23:07:32.241Z,7.30
2017-11-23T23:09:58.512Z,7.30
2017-11-23T23:12:24.801Z,7.30
2017-11-23T23:14:51.066Z,7.30
2017-11-23T23:17:17.327Z,7.30
2017-11-23T23:19:44.349Z,7.30
2017-11-23T23:22:10.605Z,7.30
2017-11-23T23:24:36.866Z,7.30
2017-11-23T23:27:03.140Z,7.20
2017-11-23T23:29:29.413Z,7.10
2017-11-23T23:31:55.672Z,7.10
2017-11-23T23:34:21.917Z,7.00
2017-11-23T23:36:48.261Z,7.00
2017-11-23T23:39:14.504Z,7.00
2017-11-23T23:41:40.784Z,7.00
2017-11-23T23:44:07.059Z,7.10
2017-11-23T23:46:33.313Z,7.10
2017-11-23T23:48:59.561Z,7.20
2017-11-23T23:51:25.861Z,7.30
2017-11-23T23:53:52.152Z,7.30
2017-11-23T23:56:18.482Z,7.30
2017-11-23T23:58:44.752Z,7.30
